sensor_id;sensor_type;location;lat;lon;timestamp;P1;durP1;ratioP1;P2;durP2;ratioP2
13356;SDS011;6747;56.456;-3.120;2023-12-14T00:02:23;4.80;;;3.65;;
13356;SDS011;6747;56.456;-3.120;2023-12-14T00:04:50;4.55;;;3.60;;
13356;SDS011;6747;56.456;-3.120;2023-12-14T00:07:18;5.15;;;3.17;;
13356;SDS011;6747;56.456;-3.120;2023-12-14T00:09:46;2.83;;;2.55;;
13356;SDS011;6747;56.456;-3.120;2023-12-14T00:12:14;3.58;;;2.42;;
13356;SDS011;6747;56.456;-3.120;2023-12-14T00:14:42;5.57;;;2.38;;
13356;SDS011;6747;56.456;-3.120;2023-12-14T00:17:10;6.22;;;2.75;;
13356;SDS011;6747;56.456;-3.120;2023-12-14T00:19:37;2.75;;;2.15;;
13356;SDS011;6747;56.456;-3.120;2023-12-14T00:22:05;2.53;;;1.98;;
13356;SDS011;6747;56.456;-3.120;2023-12-14T00:24:32;3.33;;;2.10;;
13356;SDS011;6747;56.456;-3.120;2023-12-14T00:27:00;2.10;;;1.90;;
13356;SDS011;6747;56.456;-3.120;2023-12-14T00:29:29;2.20;;;1.90;;
13356;SDS011;6747;56.456;-3.120;2023-12-14T00:31:56;1.95;;;1.70;;
13356;SDS011;6747;56.456;-3.120;2023-12-14T00:34:24;4.28;;;1.83;;
13356;SDS011;6747;56.456;-3.120;2023-12-14T00:36:51;2.15;;;1.50;;
13356;SDS011;6747;56.456;-3.120;2023-12-14T00:39:19;1.80;;;1.70;;
13356;SDS011;6747;56.456;-3.120;2023-12-14T00:41:46;1.83;;;1.23;;
13356;SDS011;6747;56.456;-3.120;2023-12-14T00:44:14;2.45;;;1.50;;
13356;SDS011;6747;56.456;-3.120;2023-12-14T00:46:43;3.83;;;1.70;;
13356;SDS011;6747;56.456;-3.120;2023-12-14T00:49:10;2.55;;;1.55;;
13356;SDS011;6747;56.456;-3.120;2023-12-14T00:51:38;3.35;;;1.58;;
13356;SDS011;6747;56.456;-3.120;2023-12-14T00:54:05;3.55;;;1.73;;
13356;SDS011;6747;56.456;-3.120;2023-12-14T00:56:33;3.88;;;1.50;;
13356;SDS011;6747;56.456;-3.120;2023-12-14T00:59:00;2.72;;;1.20;;
13356;SDS011;6747;56.456;-3.120;2023-12-14T01:01:28;4.28;;;1.75;;
13356;SDS011;6747;56.456;-3.120;2023-12-14T01:03:57;1.95;;;1.75;;
13356;SDS011;6747;56.456;-3.120;2023-12-14T01:06:25;2.65;;;1.55;;
13356;SDS011;6747;56.456;-3.120;2023-12-14T01:08:52;1.40;;;1.20;;
13356;SDS011;6747;56.456;-3.120;2023-12-14T01:11:20;2.58;;;1.25;;
13356;SDS011;6747;56.456;-3.120;2023-12-14T01:13:48;3.80;;;1.77;;
13356;SDS011;6747;56.456;-3.120;2023-12-14T01:16:15;1.65;;;1.50;;
13356;SDS011;6747;56.456;-3.120;2023-12-14T01:18:43;2.65;;;1.55;;
13356;SDS011;6747;56.456;-3.120;2023-12-14T01:21:12;2.38;;;1.38;;
13356;SDS011;6747;56.456;-3.120;2023-12-14T01:23:39;3.25;;;1.40;;
13356;SDS011;6747;56.456;-3.120;2023-12-14T01:26:07;3.92;;;1.70;;
13356;SDS011;6747;56.456;-3.120;2023-12-14T01:28:34;3.50;;;1.50;;
13356;SDS011;6747;56.456;-3.120;2023-12-14T01:31:02;2.15;;;1.50;;
13356;SDS011;6747;56.456;-3.120;2023-12-14T01:33:30;2.95;;;1.55;;
13356;SDS011;6747;56.456;-3.120;2023-12-14T01:35:57;1.63;;;1.52;;
13356;SDS011;6747;56.456;-3.120;2023-12-14T01:38:26;3.45;;;1.85;;
13356;SDS011;6747;56.456;-3.120;2023-12-14T01:40:54;1.65;;;1.52;;
13356;SDS011;6747;56.456;-3.120;2023-12-14T01:43:22;3.10;;;1.40;;
13356;SDS011;6747;56.456;-3.120;2023-12-14T01:45:49;6.55;;;2.00;;
13356;SDS011;6747;56.456;-3.120;2023-12-14T01:48:17;4.40;;;1.52;;
13356;SDS011;6747;56.456;-3.120;2023-12-14T01:50:45;1.67;;;1.58;;
13356;SDS011;6747;56.456;-3.120;2023-12-14T01:53:12;2.15;;;1.40;;
13356;SDS011;6747;56.456;-3.120;2023-12-14T01:55:41;3.75;;;1.38;;
13356;SDS011;6747;56.456;-3.120;2023-12-14T01:58:09;2.00;;;1.55;;
13356;SDS011;6747;56.456;-3.120;2023-12-14T02:00:38;2.30;;;1.48;;
13356;SDS011;6747;56.456;-3.120;2023-12-14T02:03:06;1.38;;;1.00;;
13356;SDS011;6747;56.456;-3.120;2023-12-14T02:05:34;1.52;;;1.42;;
13356;SDS011;6747;56.456;-3.120;2023-12-14T02:08:01;1.60;;;1.25;;
13356;SDS011;6747;56.456;-3.120;2023-12-14T02:10:29;2.50;;;1.40;;
13356;SDS011;6747;56.456;-3.120;2023-12-14T02:12:58;1.85;;;1.38;;
13356;SDS011;6747;56.456;-3.120;2023-12-14T02:15:28;4.57;;;1.38;;
13356;SDS011;6747;56.456;-3.120;2023-12-14T02:17:56;2.90;;;1.60;;
13356;SDS011;6747;56.456;-3.120;2023-12-14T02:20:23;2.75;;;1.40;;
13356;SDS011;6747;56.456;-3.120;2023-12-14T02:22:52;2.45;;;1.33;;
13356;SDS011;6747;56.456;-3.120;2023-12-14T02:25:21;3.38;;;1.58;;
13356;SDS011;6747;56.456;-3.120;2023-12-14T02:27:48;1.70;;;1.40;;
13356;SDS011;6747;56.456;-3.120;2023-12-14T02:30:17;5.97;;;1.73;;
13356;SDS011;6747;56.456;-3.120;2023-12-14T02:32:44;2.78;;;1.70;;
13356;SDS011;6747;56.456;-3.120;2023-12-14T02:35:12;3.03;;;1.42;;
13356;SDS011;6747;56.456;-3.120;2023-12-14T02:37:40;2.58;;;1.38;;
13356;SDS011;6747;56.456;-3.120;2023-12-14T02:40:09;1.98;;;1.35;;
13356;SDS011;6747;56.456;-3.120;2023-12-14T02:42:37;2.10;;;2.00;;
13356;SDS011;6747;56.456;-3.120;2023-12-14T02:45:05;2.08;;;1.40;;
13356;SDS011;6747;56.456;-3.120;2023-12-14T02:47:33;1.33;;;1.17;;
13356;SDS011;6747;56.456;-3.120;2023-12-14T02:50:00;1.80;;;1.50;;
13356;SDS011;6747;56.456;-3.120;2023-12-14T02:52:28;4.20;;;1.80;;
13356;SDS011;6747;56.456;-3.120;2023-12-14T02:54:56;3.35;;;1.65;;
13356;SDS011;6747;56.456;-3.120;2023-12-14T02:57:25;2.47;;;1.60;;
13356;SDS011;6747;56.456;-3.120;2023-12-14T02:59:53;2.55;;;1.40;;
13356;SDS011;6747;56.456;-3.120;2023-12-14T03:02:20;1.73;;;1.40;;
13356;SDS011;6747;56.456;-3.120;2023-12-14T03:04:48;3.25;;;1.67;;
13356;SDS011;6747;56.456;-3.120;2023-12-14T03:07:16;4.57;;;1.58;;
13356;SDS011;6747;56.456;-3.120;2023-12-14T03:09:44;2.28;;;1.50;;
13356;SDS011;6747;56.456;-3.120;2023-12-14T03:12:12;1.55;;;1.27;;
13356;SDS011;6747;56.456;-3.120;2023-12-14T03:14:41;1.77;;;1.67;;
13356;SDS011;6747;56.456;-3.120;2023-12-14T03:17:08;2.58;;;1.50;;
13356;SDS011;6747;56.456;-3.120;2023-12-14T03:19:38;2.88;;;1.67;;
13356;SDS011;6747;56.456;-3.120;2023-12-14T03:22:06;4.70;;;1.50;;
13356;SDS011;6747;56.456;-3.120;2023-12-14T03:24:34;3.22;;;1.30;;
13356;SDS011;6747;56.456;-3.120;2023-12-14T03:27:02;2.65;;;1.30;;
13356;SDS011;6747;56.456;-3.120;2023-12-14T03:29:30;3.63;;;1.38;;
13356;SDS011;6747;56.456;-3.120;2023-12-14T03:31:59;2.83;;;1.67;;
13356;SDS011;6747;56.456;-3.120;2023-12-14T03:34:27;2.15;;;1.27;;
13356;SDS011;6747;56.456;-3.120;2023-12-14T03:36:55;4.20;;;1.77;;
13356;SDS011;6747;56.456;-3.120;2023-12-14T03:39:22;2.13;;;1.42;;
13356;SDS011;6747;56.456;-3.120;2023-12-14T03:41:50;1.52;;;1.38;;
13356;SDS011;6747;56.456;-3.120;2023-12-14T03:44:17;2.92;;;1.70;;
13356;SDS011;6747;56.456;-3.120;2023-12-14T03:46:45;3.42;;;1.60;;
13356;SDS011;6747;56.456;-3.120;2023-12-14T03:49:14;1.90;;;1.65;;
13356;SDS011;6747;56.456;-3.120;2023-12-14T03:51:42;1.75;;;1.40;;
13356;SDS011;6747;56.456;-3.120;2023-12-14T03:54:10;3.38;;;1.30;;
13356;SDS011;6747;56.456;-3.120;2023-12-14T03:56:37;4.15;;;1.38;;
13356;SDS011;6747;56.456;-3.120;2023-12-14T03:59:05;1.90;;;1.75;;
13356;SDS011;6747;56.456;-3.120;2023-12-14T04:01:32;2.50;;;1.48;;
13356;SDS011;6747;56.456;-3.120;2023-12-14T04:04:04;2.50;;;1.98;;
13356;SDS011;6747;56.456;-3.120;2023-12-14T04:06:33;2.08;;;1.33;;
13356;SDS011;6747;56.456;-3.120;2023-12-14T04:09:00;3.60;;;1.90;;
13356;SDS011;6747;56.456;-3.120;2023-12-14T04:11:28;2.75;;;1.50;;
13356;SDS011;6747;56.456;-3.120;2023-12-14T04:13:55;1.58;;;1.30;;
13356;SDS011;6747;56.456;-3.120;2023-12-14T04:16:23;1.73;;;1.58;;
13356;SDS011;6747;56.456;-3.120;2023-12-14T04:18:50;1.92;;;1.33;;
13356;SDS011;6747;56.456;-3.120;2023-12-14T04:21:18;3.22;;;1.58;;
13356;SDS011;6747;56.456;-3.120;2023-12-14T04:23:47;1.50;;;1.40;;
13356;SDS011;6747;56.456;-3.120;2023-12-14T04:26:14;2.15;;;1.48;;
13356;SDS011;6747;56.456;-3.120;2023-12-14T04:28:42;2.00;;;1.38;;
13356;SDS011;6747;56.456;-3.120;2023-12-14T04:31:11;3.00;;;1.50;;
13356;SDS011;6747;56.456;-3.120;2023-12-14T04:33:38;3.50;;;1.85;;
13356;SDS011;6747;56.456;-3.120;2023-12-14T04:36:06;2.03;;;1.45;;
13356;SDS011;6747;56.456;-3.120;2023-12-14T04:38:34;2.95;;;1.90;;
13356;SDS011;6747;56.456;-3.120;2023-12-14T04:41:03;2.75;;;1.70;;
13356;SDS011;6747;56.456;-3.120;2023-12-14T04:43:31;1.83;;;1.40;;
13356;SDS011;6747;56.456;-3.120;2023-12-14T04:45:58;2.45;;;1.50;;
13356;SDS011;6747;56.456;-3.120;2023-12-14T04:48:26;3.25;;;1.70;;
13356;SDS011;6747;56.456;-3.120;2023-12-14T04:50:53;2.38;;;1.50;;
13356;SDS011;6747;56.456;-3.120;2023-12-14T04:53:21;2.63;;;1.60;;
13356;SDS011;6747;56.456;-3.120;2023-12-14T04:55:48;3.28;;;1.63;;
13356;SDS011;6747;56.456;-3.120;2023-12-14T04:58:17;6.43;;;1.95;;
13356;SDS011;6747;56.456;-3.120;2023-12-14T05:00:45;2.28;;;1.70;;
13356;SDS011;6747;56.456;-3.120;2023-12-14T05:03:12;2.20;;;1.80;;
13356;SDS011;6747;56.456;-3.120;2023-12-14T05:05:40;5.40;;;2.33;;
13356;SDS011;6747;56.456;-3.120;2023-12-14T05:08:08;2.42;;;1.77;;
13356;SDS011;6747;56.456;-3.120;2023-12-14T05:10:35;1.65;;;1.55;;
13356;SDS011;6747;56.456;-3.120;2023-12-14T05:13:03;1.63;;;1.52;;
13356;SDS011;6747;56.456;-3.120;2023-12-14T05:15:32;1.40;;;1.30;;
13356;SDS011;6747;56.456;-3.120;2023-12-14T05:18:00;1.83;;;1.70;;
13356;SDS011;6747;56.456;-3.120;2023-12-14T05:20:27;2.65;;;1.70;;
13356;SDS011;6747;56.456;-3.120;2023-12-14T05:22:55;2.42;;;1.70;;
13356;SDS011;6747;56.456;-3.120;2023-12-14T05:25:22;1.70;;;1.60;;
13356;SDS011;6747;56.456;-3.120;2023-12-14T05:27:50;3.30;;;1.70;;
13356;SDS011;6747;56.456;-3.120;2023-12-14T05:30:17;1.73;;;1.50;;
13356;SDS011;6747;56.456;-3.120;2023-12-14T05:32:46;2.22;;;1.88;;
13356;SDS011;6747;56.456;-3.120;2023-12-14T05:35:14;1.63;;;1.30;;
13356;SDS011;6747;56.456;-3.120;2023-12-14T05:37:42;1.95;;;1.58;;
13356;SDS011;6747;56.456;-3.120;2023-12-14T05:40:10;3.67;;;1.80;;
13356;SDS011;6747;56.456;-3.120;2023-12-14T05:42:37;3.95;;;1.75;;
13356;SDS011;6747;56.456;-3.120;2023-12-14T05:45:05;2.30;;;1.90;;
13356;SDS011;6747;56.456;-3.120;2023-12-14T05:47:33;4.90;;;1.85;;
13356;SDS011;6747;56.456;-3.120;2023-12-14T05:50:03;2.50;;;2.00;;
13356;SDS011;6747;56.456;-3.120;2023-12-14T05:52:30;2.33;;;2.13;;
13356;SDS011;6747;56.456;-3.120;2023-12-14T05:54:58;3.72;;;1.75;;
13356;SDS011;6747;56.456;-3.120;2023-12-14T05:57:25;2.35;;;1.95;;
13356;SDS011;6747;56.456;-3.120;2023-12-14T05:59:53;2.55;;;1.98;;
13356;SDS011;6747;56.456;-3.120;2023-12-14T06:02:20;2.25;;;1.88;;
13356;SDS011;6747;56.456;-3.120;2023-12-14T06:04:48;2.85;;;1.88;;
13356;SDS011;6747;56.456;-3.120;2023-12-14T06:07:17;1.92;;;1.65;;
13356;SDS011;6747;56.456;-3.120;2023-12-14T06:09:45;3.22;;;1.80;;
13356;SDS011;6747;56.456;-3.120;2023-12-14T06:12:12;1.85;;;1.70;;
13356;SDS011;6747;56.456;-3.120;2023-12-14T06:14:40;1.98;;;1.77;;
13356;SDS011;6747;56.456;-3.120;2023-12-14T06:17:07;1.98;;;1.60;;
13356;SDS011;6747;56.456;-3.120;2023-12-14T06:19:35;2.63;;;1.80;;
13356;SDS011;6747;56.456;-3.120;2023-12-14T06:22:02;1.80;;;1.70;;
13356;SDS011;6747;56.456;-3.120;2023-12-14T06:24:31;2.60;;;1.98;;
13356;SDS011;6747;56.456;-3.120;2023-12-14T06:26:59;1.83;;;1.65;;
13356;SDS011;6747;56.456;-3.120;2023-12-14T06:29:26;3.03;;;1.75;;
13356;SDS011;6747;56.456;-3.120;2023-12-14T06:31:54;1.80;;;1.70;;
13356;SDS011;6747;56.456;-3.120;2023-12-14T06:34:21;3.35;;;2.35;;
13356;SDS011;6747;56.456;-3.120;2023-12-14T06:36:49;2.15;;;1.92;;
13356;SDS011;6747;56.456;-3.120;2023-12-14T06:39:17;2.05;;;1.77;;
13356;SDS011;6747;56.456;-3.120;2023-12-14T06:41:46;1.60;;;1.50;;
13356;SDS011;6747;56.456;-3.120;2023-12-14T06:44:13;1.50;;;1.40;;
13356;SDS011;6747;56.456;-3.120;2023-12-14T06:46:42;1.70;;;1.60;;
13356;SDS011;6747;56.456;-3.120;2023-12-14T06:49:09;2.13;;;1.38;;
13356;SDS011;6747;56.456;-3.120;2023-12-14T06:51:37;2.28;;;1.15;;
13356;SDS011;6747;56.456;-3.120;2023-12-14T06:54:05;2.30;;;1.40;;
13356;SDS011;6747;56.456;-3.120;2023-12-14T06:56:32;2.38;;;1.70;;
13356;SDS011;6747;56.456;-3.120;2023-12-14T06:59:02;1.80;;;1.70;;
13356;SDS011;6747;56.456;-3.120;2023-12-14T07:01:29;1.80;;;1.70;;
13356;SDS011;6747;56.456;-3.120;2023-12-14T07:03:57;3.60;;;2.25;;
13356;SDS011;6747;56.456;-3.120;2023-12-14T07:06:24;2.25;;;1.70;;
13356;SDS011;6747;56.456;-3.120;2023-12-14T07:08:52;2.17;;;1.90;;
13356;SDS011;6747;56.456;-3.120;2023-12-14T07:11:19;1.90;;;1.75;;
13356;SDS011;6747;56.456;-3.120;2023-12-14T07:13:47;1.42;;;1.38;;
13356;SDS011;6747;56.456;-3.120;2023-12-14T07:16:16;2.22;;;1.45;;
13356;SDS011;6747;56.456;-3.120;2023-12-14T07:18:43;1.60;;;1.50;;
13356;SDS011;6747;56.456;-3.120;2023-12-14T07:21:12;1.38;;;1.20;;
13356;SDS011;6747;56.456;-3.120;2023-12-14T07:23:39;1.02;;;1.02;;
13356;SDS011;6747;56.456;-3.120;2023-12-14T07:26:07;1.52;;;1.17;;
13356;SDS011;6747;56.456;-3.120;2023-12-14T07:28:34;1.65;;;1.25;;
13356;SDS011;6747;56.456;-3.120;2023-12-14T07:31:02;2.35;;;1.30;;
13356;SDS011;6747;56.456;-3.120;2023-12-14T07:33:31;1.67;;;1.25;;
13356;SDS011;6747;56.456;-3.120;2023-12-14T07:35:58;2.15;;;1.70;;
13356;SDS011;6747;56.456;-3.120;2023-12-14T07:38:26;5.50;;;1.58;;
13356;SDS011;6747;56.456;-3.120;2023-12-14T07:40:54;4.90;;;1.45;;
13356;SDS011;6747;56.456;-3.120;2023-12-14T07:43:21;2.70;;;1.33;;
13356;SDS011;6747;56.456;-3.120;2023-12-14T07:45:49;2.53;;;1.60;;
13356;SDS011;6747;56.456;-3.120;2023-12-14T07:48:17;4.20;;;1.20;;
13356;SDS011;6747;56.456;-3.120;2023-12-14T07:50:46;2.80;;;1.30;;
13356;SDS011;6747;56.456;-3.120;2023-12-14T07:53:13;2.28;;;1.60;;
13356;SDS011;6747;56.456;-3.120;2023-12-14T07:55:41;1.65;;;1.23;;
13356;SDS011;6747;56.456;-3.120;2023-12-14T07:58:08;1.98;;;1.38;;
13356;SDS011;6747;56.456;-3.120;2023-12-14T08:00:36;3.35;;;1.10;;
13356;SDS011;6747;56.456;-3.120;2023-12-14T08:03:04;4.78;;;1.40;;
13356;SDS011;6747;56.456;-3.120;2023-12-14T08:05:31;5.15;;;1.48;;
13356;SDS011;6747;56.456;-3.120;2023-12-14T08:08:00;6.80;;;1.30;;
13356;SDS011;6747;56.456;-3.120;2023-12-14T08:10:28;3.47;;;1.48;;
13356;SDS011;6747;56.456;-3.120;2023-12-14T08:12:55;5.18;;;1.80;;
13356;SDS011;6747;56.456;-3.120;2023-12-14T08:15:23;7.10;;;1.42;;
13356;SDS011;6747;56.456;-3.120;2023-12-14T08:17:50;4.93;;;1.20;;
13356;SDS011;6747;56.456;-3.120;2023-12-14T08:20:18;6.78;;;1.42;;
13356;SDS011;6747;56.456;-3.120;2023-12-14T08:22:46;3.40;;;1.30;;
13356;SDS011;6747;56.456;-3.120;2023-12-14T08:25:15;5.15;;;1.27;;
13356;SDS011;6747;56.456;-3.120;2023-12-14T08:27:43;3.22;;;1.35;;
13356;SDS011;6747;56.456;-3.120;2023-12-14T08:30:11;4.68;;;1.30;;
13356;SDS011;6747;56.456;-3.120;2023-12-14T08:32:38;1.55;;;1.40;;
13356;SDS011;6747;56.456;-3.120;2023-12-14T08:35:06;4.43;;;1.15;;
13356;SDS011;6747;56.456;-3.120;2023-12-14T08:37:35;5.07;;;1.27;;
13356;SDS011;6747;56.456;-3.120;2023-12-14T08:40:02;5.45;;;1.50;;
13356;SDS011;6747;56.456;-3.120;2023-12-14T08:42:32;6.40;;;1.30;;
13356;SDS011;6747;56.456;-3.120;2023-12-14T08:44:59;3.35;;;1.40;;
13356;SDS011;6747;56.456;-3.120;2023-12-14T08:47:27;6.68;;;1.60;;
13356;SDS011;6747;56.456;-3.120;2023-12-14T08:49:54;5.68;;;1.80;;
13356;SDS011;6747;56.456;-3.120;2023-12-14T08:52:22;6.80;;;1.60;;
13356;SDS011;6747;56.456;-3.120;2023-12-14T08:54:49;5.70;;;1.70;;
13356;SDS011;6747;56.456;-3.120;2023-12-14T08:57:17;8.75;;;2.05;;
13356;SDS011;6747;56.456;-3.120;2023-12-14T08:59:46;3.17;;;1.45;;
13356;SDS011;6747;56.456;-3.120;2023-12-14T09:02:13;5.82;;;2.05;;
13356;SDS011;6747;56.456;-3.120;2023-12-14T09:04:41;9.10;;;2.17;;
13356;SDS011;6747;56.456;-3.120;2023-12-14T09:07:08;6.95;;;1.88;;
13356;SDS011;6747;56.456;-3.120;2023-12-14T09:09:36;5.10;;;1.58;;
13356;SDS011;6747;56.456;-3.120;2023-12-14T09:12:04;6.25;;;1.80;;
13356;SDS011;6747;56.456;-3.120;2023-12-14T09:14:31;8.30;;;1.83;;
13356;SDS011;6747;56.456;-3.120;2023-12-14T09:17:00;8.93;;;2.15;;
13356;SDS011;6747;56.456;-3.120;2023-12-14T09:19:28;5.65;;;1.70;;
13356;SDS011;6747;56.456;-3.120;2023-12-14T09:21:56;6.80;;;1.83;;
13356;SDS011;6747;56.456;-3.120;2023-12-14T09:24:24;5.05;;;1.75;;
13356;SDS011;6747;56.456;-3.120;2023-12-14T09:26:51;3.45;;;1.60;;
13356;SDS011;6747;56.456;-3.120;2023-12-14T09:29:19;6.13;;;1.95;;
13356;SDS011;6747;56.456;-3.120;2023-12-14T09:31:46;12.55;;;1.92;;
13356;SDS011;6747;56.456;-3.120;2023-12-14T09:34:16;5.72;;;1.83;;
13356;SDS011;6747;56.456;-3.120;2023-12-14T09:36:44;2.97;;;1.70;;
13356;SDS011;6747;56.456;-3.120;2023-12-14T09:39:11;3.28;;;1.50;;
13356;SDS011;6747;56.456;-3.120;2023-12-14T09:41:40;5.07;;;1.75;;
13356;SDS011;6747;56.456;-3.120;2023-12-14T09:44:08;4.28;;;1.60;;
13356;SDS011;6747;56.456;-3.120;2023-12-14T09:46:36;8.05;;;2.10;;
13356;SDS011;6747;56.456;-3.120;2023-12-14T09:49:06;8.68;;;2.30;;
13356;SDS011;6747;56.456;-3.120;2023-12-14T09:51:36;7.68;;;2.40;;
13356;SDS011;6747;56.456;-3.120;2023-12-14T09:54:06;6.63;;;2.92;;
13356;SDS011;6747;56.456;-3.120;2023-12-14T09:56:33;10.68;;;2.90;;
13356;SDS011;6747;56.456;-3.120;2023-12-14T09:59:01;10.88;;;3.00;;
13356;SDS011;6747;56.456;-3.120;2023-12-14T10:01:30;8.93;;;2.83;;
13356;SDS011;6747;56.456;-3.120;2023-12-14T10:04:07;9.68;;;2.65;;
13356;SDS011;6747;56.456;-3.120;2023-12-14T10:06:37;14.15;;;3.33;;
13356;SDS011;6747;56.456;-3.120;2023-12-14T10:09:04;8.27;;;2.33;;
13356;SDS011;6747;56.456;-3.120;2023-12-14T10:11:35;11.63;;;2.80;;
13356;SDS011;6747;56.456;-3.120;2023-12-14T10:14:03;17.27;;;3.67;;
13356;SDS011;6747;56.456;-3.120;2023-12-14T10:16:31;12.02;;;3.10;;
13356;SDS011;6747;56.456;-3.120;2023-12-14T10:18:59;15.98;;;3.63;;
13356;SDS011;6747;56.456;-3.120;2023-12-14T10:21:27;13.02;;;4.30;;
13356;SDS011;6747;56.456;-3.120;2023-12-14T10:23:57;15.25;;;4.22;;
13356;SDS011;6747;56.456;-3.120;2023-12-14T10:26:25;12.43;;;3.55;;
13356;SDS011;6747;56.456;-3.120;2023-12-14T10:28:53;13.75;;;3.50;;
13356;SDS011;6747;56.456;-3.120;2023-12-14T10:31:21;13.73;;;3.75;;
13356;SDS011;6747;56.456;-3.120;2023-12-14T10:33:49;16.90;;;3.67;;
13356;SDS011;6747;56.456;-3.120;2023-12-14T10:36:17;12.80;;;3.67;;
13356;SDS011;6747;56.456;-3.120;2023-12-14T10:38:48;10.50;;;3.20;;
13356;SDS011;6747;56.456;-3.120;2023-12-14T10:41:17;14.13;;;3.33;;
13356;SDS011;6747;56.456;-3.120;2023-12-14T10:43:44;9.35;;;2.95;;
13356;SDS011;6747;56.456;-3.120;2023-12-14T10:46:13;12.23;;;3.10;;
13356;SDS011;6747;56.456;-3.120;2023-12-14T10:48:41;12.30;;;3.08;;
13356;SDS011;6747;56.456;-3.120;2023-12-14T10:51:10;21.50;;;3.92;;
13356;SDS011;6747;56.456;-3.120;2023-12-14T10:53:38;11.85;;;3.47;;
13356;SDS011;6747;56.456;-3.120;2023-12-14T10:56:08;11.45;;;3.20;;
13356;SDS011;6747;56.456;-3.120;2023-12-14T10:58:48;11.55;;;2.95;;
13356;SDS011;6747;56.456;-3.120;2023-12-14T11:01:19;16.70;;;3.70;;
13356;SDS011;6747;56.456;-3.120;2023-12-14T11:03:49;14.00;;;3.00;;
13356;SDS011;6747;56.456;-3.120;2023-12-14T11:06:26;14.50;;;3.55;;
13356;SDS011;6747;56.456;-3.120;2023-12-14T11:08:56;11.20;;;3.00;;
13356;SDS011;6747;56.456;-3.120;2023-12-14T11:11:27;12.20;;;3.35;;
13356;SDS011;6747;56.456;-3.120;2023-12-14T11:13:56;15.63;;;3.47;;
13356;SDS011;6747;56.456;-3.120;2023-12-14T11:16:25;10.07;;;3.30;;
13356;SDS011;6747;56.456;-3.120;2023-12-14T11:21:39;15.25;;;3.25;;
13356;SDS011;6747;56.456;-3.120;2023-12-14T11:24:07;14.00;;;3.40;;
13356;SDS011;6747;56.456;-3.120;2023-12-14T11:26:35;10.88;;;3.28;;
13356;SDS011;6747;56.456;-3.120;2023-12-14T11:29:04;13.02;;;2.92;;
13356;SDS011;6747;56.456;-3.120;2023-12-14T11:31:32;10.73;;;3.22;;
13356;SDS011;6747;56.456;-3.120;2023-12-14T11:34:00;12.00;;;3.17;;
13356;SDS011;6747;56.456;-3.120;2023-12-14T11:36:29;13.85;;;2.70;;
13356;SDS011;6747;56.456;-3.120;2023-12-14T11:38:57;10.23;;;3.08;;
13356;SDS011;6747;56.456;-3.120;2023-12-14T11:41:25;16.98;;;3.47;;
13356;SDS011;6747;56.456;-3.120;2023-12-14T11:43:54;10.45;;;3.08;;
13356;SDS011;6747;56.456;-3.120;2023-12-14T11:46:23;13.65;;;3.10;;
13356;SDS011;6747;56.456;-3.120;2023-12-14T11:48:51;14.68;;;3.97;;
13356;SDS011;6747;56.456;-3.120;2023-12-14T11:51:18;16.98;;;3.45;;
13356;SDS011;6747;56.456;-3.120;2023-12-14T11:53:46;17.08;;;3.42;;
13356;SDS011;6747;56.456;-3.120;2023-12-14T11:56:14;9.75;;;3.67;;
13356;SDS011;6747;56.456;-3.120;2023-12-14T11:58:44;12.27;;;3.50;;
13356;SDS011;6747;56.456;-3.120;2023-12-14T12:01:13;15.15;;;3.92;;
13356;SDS011;6747;56.456;-3.120;2023-12-14T12:03:43;13.32;;;3.30;;
13356;SDS011;6747;56.456;-3.120;2023-12-14T12:06:19;11.23;;;2.88;;
13356;SDS011;6747;56.456;-3.120;2023-12-14T12:08:47;15.95;;;3.78;;
13356;SDS011;6747;56.456;-3.120;2023-12-14T12:11:15;19.13;;;4.00;;
13356;SDS011;6747;56.456;-3.120;2023-12-14T12:13:43;10.40;;;2.72;;
13356;SDS011;6747;56.456;-3.120;2023-12-14T12:16:11;15.43;;;3.28;;
13356;SDS011;6747;56.456;-3.120;2023-12-14T12:18:38;12.52;;;3.20;;
13356;SDS011;6747;56.456;-3.120;2023-12-14T12:21:08;15.18;;;4.10;;
13356;SDS011;6747;56.456;-3.120;2023-12-14T12:23:35;16.52;;;3.70;;
13356;SDS011;6747;56.456;-3.120;2023-12-14T12:26:03;12.43;;;3.28;;
13356;SDS011;6747;56.456;-3.120;2023-12-14T12:28:31;21.20;;;3.58;;
13356;SDS011;6747;56.456;-3.120;2023-12-14T12:30:59;11.07;;;3.53;;
13356;SDS011;6747;56.456;-3.120;2023-12-14T12:33:26;11.77;;;2.72;;
13356;SDS011;6747;56.456;-3.120;2023-12-14T12:35:55;12.85;;;3.05;;
13356;SDS011;6747;56.456;-3.120;2023-12-14T12:38:24;17.75;;;3.15;;
13356;SDS011;6747;56.456;-3.120;2023-12-14T12:40:52;13.23;;;3.33;;
13356;SDS011;6747;56.456;-3.120;2023-12-14T12:43:20;15.07;;;2.95;;
13356;SDS011;6747;56.456;-3.120;2023-12-14T12:45:48;13.52;;;3.25;;
13356;SDS011;6747;56.456;-3.120;2023-12-14T12:48:16;10.07;;;2.70;;
13356;SDS011;6747;56.456;-3.120;2023-12-14T12:50:43;14.10;;;3.65;;
13356;SDS011;6747;56.456;-3.120;2023-12-14T12:53:11;10.85;;;3.13;;
13356;SDS011;6747;56.456;-3.120;2023-12-14T12:55:40;17.25;;;3.60;;
13356;SDS011;6747;56.456;-3.120;2023-12-14T12:58:07;12.65;;;4.15;;
13356;SDS011;6747;56.456;-3.120;2023-12-14T13:00:35;15.30;;;3.80;;
13356;SDS011;6747;56.456;-3.120;2023-12-14T13:03:03;19.08;;;3.90;;
13356;SDS011;6747;56.456;-3.120;2023-12-14T13:05:30;13.82;;;3.83;;
13356;SDS011;6747;56.456;-3.120;2023-12-14T13:07:58;15.98;;;3.60;;
13356;SDS011;6747;56.456;-3.120;2023-12-14T13:10:25;14.40;;;4.13;;
13356;SDS011;6747;56.456;-3.120;2023-12-14T13:12:54;15.13;;;3.08;;
13356;SDS011;6747;56.456;-3.120;2023-12-14T13:15:22;13.75;;;3.17;;
13356;SDS011;6747;56.456;-3.120;2023-12-14T13:17:50;14.73;;;3.60;;
13356;SDS011;6747;56.456;-3.120;2023-12-14T13:20:18;15.32;;;3.15;;
13356;SDS011;6747;56.456;-3.120;2023-12-14T13:22:46;13.73;;;3.42;;
13356;SDS011;6747;56.456;-3.120;2023-12-14T13:25:13;10.35;;;3.05;;
13356;SDS011;6747;56.456;-3.120;2023-12-14T13:27:41;11.27;;;3.13;;
13356;SDS011;6747;56.456;-3.120;2023-12-14T13:30:11;14.15;;;2.80;;
13356;SDS011;6747;56.456;-3.120;2023-12-14T13:32:42;9.13;;;3.10;;
13356;SDS011;6747;56.456;-3.120;2023-12-14T13:35:09;12.40;;;3.33;;
13356;SDS011;6747;56.456;-3.120;2023-12-14T13:37:37;12.05;;;3.22;;
13356;SDS011;6747;56.456;-3.120;2023-12-14T13:40:05;12.90;;;3.13;;
13356;SDS011;6747;56.456;-3.120;2023-12-14T13:42:35;15.93;;;3.30;;
13356;SDS011;6747;56.456;-3.120;2023-12-14T13:45:02;16.70;;;3.58;;
13356;SDS011;6747;56.456;-3.120;2023-12-14T13:47:31;13.00;;;3.03;;
13356;SDS011;6747;56.456;-3.120;2023-12-14T13:49:59;13.80;;;3.47;;
13356;SDS011;6747;56.456;-3.120;2023-12-14T13:52:29;13.90;;;3.03;;
13356;SDS011;6747;56.456;-3.120;2023-12-14T13:54:57;9.00;;;2.88;;
13356;SDS011;6747;56.456;-3.120;2023-12-14T13:57:25;12.25;;;3.20;;
13356;SDS011;6747;56.456;-3.120;2023-12-14T13:59:53;15.88;;;3.08;;
13356;SDS011;6747;56.456;-3.120;2023-12-14T14:02:21;12.73;;;2.92;;
13356;SDS011;6747;56.456;-3.120;2023-12-14T14:04:54;9.45;;;2.97;;
13356;SDS011;6747;56.456;-3.120;2023-12-14T14:07:21;9.50;;;2.67;;
13356;SDS011;6747;56.456;-3.120;2023-12-14T14:09:49;12.82;;;3.40;;
13356;SDS011;6747;56.456;-3.120;2023-12-14T14:12:16;11.75;;;2.50;;
13356;SDS011;6747;56.456;-3.120;2023-12-14T14:14:44;16.35;;;2.88;;
13356;SDS011;6747;56.456;-3.120;2023-12-14T14:17:11;10.00;;;3.03;;
13356;SDS011;6747;56.456;-3.120;2023-12-14T14:19:38;15.32;;;3.55;;
13356;SDS011;6747;56.456;-3.120;2023-12-14T14:22:07;10.27;;;3.25;;
13356;SDS011;6747;56.456;-3.120;2023-12-14T14:24:35;11.98;;;2.75;;
13356;SDS011;6747;56.456;-3.120;2023-12-14T14:27:02;10.25;;;3.80;;
13356;SDS011;6747;56.456;-3.120;2023-12-14T14:29:30;13.35;;;3.33;;
13356;SDS011;6747;56.456;-3.120;2023-12-14T14:31:57;12.18;;;2.70;;
13356;SDS011;6747;56.456;-3.120;2023-12-14T14:34:25;11.02;;;3.25;;
13356;SDS011;6747;56.456;-3.120;2023-12-14T14:36:52;9.32;;;2.83;;
13356;SDS011;6747;56.456;-3.120;2023-12-14T14:39:21;6.63;;;2.33;;
13356;SDS011;6747;56.456;-3.120;2023-12-14T14:41:49;9.00;;;2.95;;
13356;SDS011;6747;56.456;-3.120;2023-12-14T14:44:17;10.10;;;3.50;;
13356;SDS011;6747;56.456;-3.120;2023-12-14T14:46:45;10.73;;;3.25;;
13356;SDS011;6747;56.456;-3.120;2023-12-14T14:49:12;10.35;;;2.75;;
13356;SDS011;6747;56.456;-3.120;2023-12-14T14:51:40;9.90;;;3.13;;